createdAt,value
2022-09-07T00:28:21.851Z,100965.27
2022-09-07T00:39:46.131Z,100955.85
2022-09-07T00:51:13.688Z,100955.02
2022-09-07T01:02:30.121Z,100954.41
2022-09-07T01:13:38.182Z,100956.05
2022-09-07T01:36:44.274Z,100950.08
2022-09-07T01:48:09.583Z,100946.61
2022-09-07T01:59:40.788Z,100953.85
2022-09-07T02:11:01.593Z,100958.89
2022-09-07T02:56:07.818Z,100931.13
2022-09-07T03:07:36.093Z,100917.11
2022-09-07T03:19:01.081Z,100909.68
2022-09-07T03:30:25.142Z,100912.28
2022-09-07T04:16:04.852Z,100916.05
2022-09-07T06:19:57.337Z,100911.63
2022-09-07T06:31:12.826Z,100904.05
2022-09-07T06:42:27.925Z,100890.14
2022-09-07T06:53:43.141Z,100878.39
2022-09-07T07:04:51.218Z,100887.27
2022-09-07T07:16:06.866Z,100892.02
2022-09-07T07:26:50.164Z,100907.98
2022-09-07T07:37:30.258Z,100923.58
2022-09-07T07:48:11.541Z,100930.52
2022-09-07T07:59:18.373Z,100910.43
2022-09-07T08:10:22.007Z,100902.05
2022-09-07T08:21:08.711Z,100888.32
2022-09-07T08:32:15.011Z,100883.13
2022-09-07T08:43:48.986Z,100873.30
2022-09-07T08:54:10.826Z,100861.79
2022-09-07T09:05:16.171Z,100857.61
2022-09-07T09:15:35.898Z,100841.23
2022-09-07T09:26:04.693Z,100828.00
2022-09-07T09:36:44.430Z,100822.14
2022-09-07T10:09:23.787Z,100794.14
2022-09-07T10:19:50.780Z,100796.01
2022-09-07T10:29:55.231Z,100775.42
2022-09-07T10:41:00.955Z,100769.63
2022-09-07T10:51:59.174Z,100755.42
2022-09-07T11:13:30.738Z,100751.95
2022-09-07T11:24:02.021Z,100751.73
2022-09-07T11:34:25.269Z,100741.38
2022-09-07T11:45:06.358Z,100727.98
2022-09-07T11:55:25.510Z,100718.99
2022-09-07T12:06:12.001Z,100707.09
2022-09-07T12:17:00.690Z,100703.36
2022-09-07T12:27:25.573Z,100706.81
2022-09-07T12:38:00.611Z,100699.77
2022-09-07T12:48:49.001Z,100681.63
2022-09-07T12:59:29.427Z,100669.98
2022-09-07T13:10:12.203Z,100657.13
2022-09-07T13:20:36.221Z,100642.02
2022-09-07T13:31:25.976Z,100635.75
2022-09-07T13:41:37.713Z,100631.62
2022-09-07T13:52:27.163Z,100632.55
2022-09-07T14:02:53.180Z,100626.68
2022-09-07T14:13:06.997Z,100610.98
2022-09-07T14:23:32.040Z,100607.02
2022-09-07T14:33:37.893Z,100600.25
2022-09-07T14:44:03.064Z,100595.31
2022-09-07T14:54:31.497Z,100579.98
2022-09-07T15:04:36.197Z,100571.47
2022-09-07T15:14:45.677Z,100566.38
2022-09-07T15:25:03.765Z,100560.30
2022-09-07T15:35:12.603Z,100565.73
2022-09-07T15:45:32.181Z,100566.09
2022-09-07T15:55:37.201Z,100562.73
2022-09-07T16:05:53.132Z,100567.86
2022-09-07T16:16:04.763Z,100558.86
2022-09-07T16:26:12.320Z,100549.34
2022-09-07T16:36:38.394Z,100546.58
2022-09-07T16:47:13.012Z,100537.30
2022-09-07T16:57:22.766Z,100535.14
2022-09-07T17:07:28.939Z,100542.95
2022-09-07T17:17:47.695Z,100536.86
2022-09-07T17:28:01.363Z,100543.47
2022-09-07T17:49:25.241Z,100561.27
2022-09-07T18:00:11.336Z,100564.95
2022-09-07T18:22:26.303Z,100564.74
2022-09-07T18:33:31.579Z,100567.45
2022-09-07T18:45:27.097Z,100563.56
2022-09-07T18:55:40.546Z,100562.91
2022-09-07T19:06:36.729Z,100565.20
2022-09-07T19:17:43.925Z,100570.82
2022-09-07T19:28:36.647Z,100565.90
2022-09-07T19:39:40.537Z,100569.08
2022-09-07T19:50:30.906Z,100565.88
2022-09-07T20:01:46.947Z,100565.86
2022-09-07T20:12:49.031Z,100568.52
2022-09-07T20:23:49.314Z,100570.23
2022-09-07T20:34:46.289Z,100567.17
2022-09-07T20:45:35.755Z,100560.30
2022-09-07T20:56:13.347Z,100565.65
2022-09-07T21:07:10.375Z,100571.95
2022-09-07T21:18:14.337Z,100575.57
2022-09-07T21:29:18.293Z,100577.07
2022-09-07T21:40:32.485Z,100583.70
2022-09-07T21:51:43.630Z,100582.09
2022-09-07T22:02:46.436Z,100569.42
2022-09-07T22:14:10.579Z,100574.95
2022-09-07T22:25:16.139Z,100566.63
2022-09-07T22:36:23.036Z,100566.22
2022-09-07T22:47:48.920Z,100563.98
2022-09-07T23:10:14.811Z,100555.73
2022-09-07T23:21:33.598Z,100558.89
2022-09-07T23:32:47.550Z,100552.64
